createdAt,value
2019-04-22T00:00:54.180Z,8.9
2019-04-22T00:01:56.795Z,8.9
2019-04-22T00:02:58.052Z,8.9
2019-04-22T00:04:00.780Z,8.9
2019-04-22T00:05:04.578Z,8.9
2019-04-22T00:06:11.347Z,8.9
2019-04-22T00:07:15.400Z,8.9
2019-04-22T00:08:16.274Z,8.9
2019-04-22T00:09:17.017Z,8.8
2019-04-22T00:10:19.175Z,8.8
2019-04-22T00:11:24.944Z,8.8
2019-04-22T00:12:19.316Z,8.7
2019-04-22T00:13:25.693Z,8.7
2019-04-22T00:14:11.489Z,8.6
2019-04-22T00:15:09.608Z,8.6
2019-04-22T00:16:14.147Z,8.5
2019-04-22T00:17:21.841Z,8.5
2019-04-22T00:18:19.672Z,8.5
2019-04-22T00:19:20.490Z,8.5
2019-04-22T00:20:29.774Z,8.4
2019-04-22T00:21:19.301Z,8.4
2019-04-22T00:22:21.926Z,8.4
2019-04-22T00:23:18.243Z,8.4
2019-04-22T00:24:16.816Z,8.4
2019-04-22T00:25:26.077Z,8.4
2019-04-22T00:26:22.259Z,8.4
2019-04-22T00:28:21.323Z,8.3
2019-04-22T00:31:20.516Z,8.3
2019-04-22T00:32:17.842Z,8.3
2019-04-22T00:33:20.281Z,8.3
2019-04-22T00:34:15.702Z,8.3
2019-04-22T00:35:17.712Z,8.3
2019-04-22T00:36:21.528Z,8.3
2019-04-22T00:37:22.620Z,8.4
2019-04-22T00:38:23.266Z,8.4
2019-04-22T00:39:19.822Z,8.4
2019-04-22T00:40:19.447Z,8.4
2019-04-22T00:41:19.024Z,8.4
2019-04-22T00:42:20.696Z,8.4
2019-04-22T00:43:19.047Z,8.4
2019-04-22T00:44:25.349Z,8.3
2019-04-22T00:45:18.936Z,8.3
2019-04-22T00:46:17.395Z,8.3
2019-04-22T00:47:22.748Z,8.3
2019-04-22T00:48:20.451Z,8.3
2019-04-22T00:49:58.049Z,8.3
2019-04-22T00:51:22.313Z,8.2
2019-04-22T00:52:21.582Z,8.2
2019-04-22T00:53:22.319Z,8.2
2019-04-22T00:54:21.259Z,8.2
2019-04-22T00:55:17.964Z,8.2
2019-04-22T00:56:15.577Z,8.1
2019-04-22T00:57:21.043Z,8.1
2019-04-22T00:58:23.888Z,8.1
2019-04-22T00:59:16.822Z,8.1
2019-04-22T01:00:17.466Z,8.1
2019-04-22T01:01:18.723Z,8.1
2019-04-22T01:02:20.055Z,8.1
2019-04-22T01:03:25.759Z,8
2019-04-22T01:04:27.279Z,8
2019-04-22T01:05:21.205Z,8
2019-04-22T01:06:19.838Z,8
2019-04-22T01:07:47.727Z,7.9
2019-04-22T01:08:20.896Z,7.9
2019-04-22T01:09:16.721Z,7.9
2019-04-22T01:10:11.429Z,7.9
2019-04-22T01:11:22.529Z,7.9
2019-04-22T01:12:19.489Z,7.9
2019-04-22T01:13:18.397Z,7.9
2019-04-22T01:14:21.494Z,7.9
2019-04-22T01:15:23.160Z,7.9
2019-04-22T01:16:22.486Z,7.8
2019-04-22T01:17:25.432Z,7.8
2019-04-22T01:18:15.504Z,7.8
2019-04-22T01:19:21.077Z,7.8
2019-04-22T01:20:45.071Z,7.8
2019-04-22T01:22:20.286Z,7.8
2019-04-22T01:23:17.796Z,7.8
2019-04-22T01:24:15.555Z,7.7
2019-04-22T01:25:18.776Z,7.8
2019-04-22T01:26:09.289Z,7.7
2019-04-22T01:27:11.282Z,7.7
2019-04-22T01:28:10.742Z,7.7
2019-04-22T01:29:10.844Z,7.7
2019-04-22T01:30:09.365Z,7.7
2019-04-22T01:31:04.624Z,7.7
2019-04-22T01:31:58.079Z,7.7
2019-04-22T01:33:05.541Z,7.7
2019-04-22T01:34:09.832Z,7.7
2019-04-22T01:35:12.698Z,7.7
2019-04-22T01:36:13.522Z,7.7
2019-04-22T01:37:13.542Z,7.7
2019-04-22T01:38:13.033Z,7.8
2019-04-22T01:39:19.865Z,7.8
2019-04-22T01:40:23.627Z,7.8
2019-04-22T01:41:22.817Z,7.8
2019-04-22T01:42:15.581Z,7.8
2019-04-22T01:43:24.406Z,7.8
2019-04-22T01:44:28.638Z,7.8
2019-04-22T01:45:24.579Z,7.8
2019-04-22T01:46:24.559Z,7.8
2019-04-22T01:47:24.431Z,7.8
2019-04-22T01:48:25.922Z,7.8
2019-04-22T01:49:21.039Z,7.8
2019-04-22T01:50:25.657Z,7.8
2019-04-22T01:51:28.096Z,7.8
2019-04-22T01:52:19.844Z,7.8
2019-04-22T01:53:26.925Z,7.8
2019-04-22T01:54:29.178Z,7.8
2019-04-22T01:55:24.428Z,7.8
2019-04-22T01:56:27.055Z,7.8
2019-04-22T01:57:22.110Z,7.8
2019-04-22T01:58:16.770Z,7.7
2019-04-22T01:59:14.917Z,7.7
2019-04-22T02:00:15.081Z,7.7
2019-04-22T02:01:21.917Z,7.7
2019-04-22T02:02:21.978Z,7.7
2019-04-22T02:03:25.414Z,7.7
2019-04-22T02:04:25.441Z,7.7
2019-04-22T02:05:22.609Z,7.6
2019-04-22T02:06:21.710Z,7.6
2019-04-22T02:07:23.295Z,7.6
2019-04-22T02:08:30.750Z,7.6
2019-04-22T02:09:30.953Z,7.6
2019-04-22T02:10:27.942Z,7.6
2019-04-22T02:11:25.381Z,7.6
2019-04-22T02:12:25.514Z,7.6
2019-04-22T02:13:21.185Z,7.6
2019-04-22T02:14:26.730Z,7.6
2019-04-22T02:15:23.152Z,7.6
2019-04-22T02:16:27.174Z,7.6
2019-04-22T02:17:24.820Z,7.6
2019-04-22T02:19:30.161Z,7.6
2019-04-22T02:20:24.808Z,7.6
2019-04-22T02:21:19.991Z,7.6
2019-04-22T02:22:28.579Z,7.6
2019-04-22T02:24:25.938Z,7.6
2019-04-22T02:25:23.480Z,7.6
2019-04-22T02:26:25.177Z,7.6
2019-04-22T02:27:31.929Z,7.6
2019-04-22T02:28:32.075Z,7.5
2019-04-22T02:29:14.433Z,7.5
2019-04-22T02:30:33.074Z,7.5
2019-04-22T02:32:38.539Z,7.5
2019-04-22T02:33:51.077Z,7.5
2019-04-22T02:34:32.283Z,7.5
2019-04-22T02:35:33.712Z,7.5
2019-04-22T02:36:28.874Z,7.4
2019-04-22T02:38:43.965Z,7.4
2019-04-22T02:39:23.451Z,7.4
2019-04-22T02:40:29.992Z,7.4
2019-04-22T02:41:25.940Z,7.4
2019-04-22T02:43:43.327Z,7.3
2019-04-22T02:44:27.768Z,7.2
2019-04-22T02:45:36.756Z,7.2
2019-04-22T02:46:52.218Z,7.2
2019-04-22T02:47:41.727Z,7.1
2019-04-22T02:48:45.387Z,7.1
2019-04-22T02:49:28.868Z,7.1
2019-04-22T02:50:27.858Z,7.1
2019-04-22T02:54:38.102Z,7
2019-04-22T02:55:31.696Z,7
2019-04-22T02:56:43.578Z,6.9
2019-04-22T02:57:34.714Z,6.9
2019-04-22T02:58:37.067Z,6.9
2019-04-22T02:59:39.043Z,6.9
2019-04-22T03:00:37.041Z,6.9
2019-04-22T03:01:35.912Z,6.9
2019-04-22T03:02:40.694Z,6.9
2019-04-22T03:03:40.337Z,6.8
2019-04-22T03:04:27.955Z,6.8
2019-04-22T03:05:36.244Z,6.7
2019-04-22T03:06:34.485Z,6.7
2019-04-22T03:07:22.739Z,6.7
2019-04-22T03:08:29.067Z,6.6
2019-04-22T03:09:27.893Z,6.6
2019-04-22T03:10:36.926Z,6.6
2019-04-22T03:11:32.726Z,6.6
2019-04-22T03:12:40.673Z,6.6
2019-04-22T03:13:37.439Z,6.5
2019-04-22T03:14:29.498Z,6.5
2019-04-22T03:15:29.588Z,6.5
2019-04-22T03:16:31.666Z,6.5
2019-04-22T03:17:28.415Z,6.5
2019-04-22T03:19:44.146Z,6.4
2019-04-22T03:20:24.041Z,6.4
2019-04-22T03:21:23.679Z,6.4
2019-04-22T03:22:27.790Z,6.4
2019-04-22T03:24:33.034Z,6.4
2019-04-22T03:25:58.402Z,6.4
2019-04-22T03:26:31.647Z,6.4
2019-04-22T03:28:36.876Z,6.4
2019-04-22T03:29:27.865Z,6.4
2019-04-22T03:35:18.754Z,6.3
2019-04-22T03:38:40.834Z,6.3
2019-04-22T03:39:50.274Z,6.3
2019-04-22T03:40:36.210Z,6.2
2019-04-22T03:42:43.400Z,6.2
2019-04-22T03:43:34.873Z,6.2
2019-04-22T03:44:23.208Z,6.2
2019-04-22T03:45:27.544Z,6.2
2019-04-22T03:46:29.816Z,6.2
2019-04-22T03:48:35.696Z,6.3
2019-04-22T03:50:35.936Z,6.3
2019-04-22T03:51:45.446Z,6.3
2019-04-22T03:52:44.333Z,6.3
2019-04-22T03:53:47.885Z,6.3
2019-04-22T03:55:20.958Z,6.3
2019-04-22T03:57:06.728Z,6.3
2019-04-22T03:57:45.554Z,6.3
2019-04-22T03:58:27.835Z,6.3
2019-04-22T03:59:41.016Z,6.2
2019-04-22T04:00:42.806Z,6.2
2019-04-22T04:02:28.622Z,6.1
2019-04-22T04:03:28.038Z,6.1
2019-04-22T04:04:32.451Z,6.1
2019-04-22T04:06:39.464Z,6
2019-04-22T04:08:32.635Z,6
2019-04-22T04:11:42.565Z,6
2019-04-22T04:12:27.862Z,6
2019-04-22T04:13:33.021Z,6
2019-04-22T04:14:35.293Z,6
2019-04-22T04:15:29.765Z,6
2019-04-22T04:16:38.572Z,6
2019-04-22T04:17:36.240Z,6
2019-04-22T04:18:39.066Z,5.9
2019-04-22T04:21:32.686Z,5.9
2019-04-22T04:22:51.976Z,6
2019-04-22T04:24:43.786Z,6
2019-04-22T04:26:45.041Z,6
2019-04-22T04:27:30.614Z,6
2019-04-22T04:29:44.990Z,6
2019-04-22T04:32:33.882Z,6
2019-04-22T04:36:33.883Z,6.1
2019-04-22T04:38:36.129Z,6.1
2019-04-22T04:39:33.978Z,6.1
2019-04-22T04:40:20.469Z,6.1
2019-04-22T04:42:38.308Z,6.1
2019-04-22T04:43:34.836Z,6.1
2019-04-22T04:44:47.586Z,6.1
2019-04-22T04:48:41.780Z,6.1
2019-04-22T04:49:43.318Z,6.2
2019-04-22T04:50:46.777Z,6.2
2019-04-22T04:51:32.444Z,6.2
2019-04-22T04:53:00.969Z,6.2
2019-04-22T04:53:24.264Z,6.2
2019-04-22T04:54:35.316Z,6.2
2019-04-22T04:56:35.738Z,6.2
2019-04-22T04:57:43.191Z,6.3
2019-04-22T04:58:33.691Z,6.3
2019-04-22T05:01:35.010Z,6.3
2019-04-22T05:02:28.488Z,6.4
2019-04-22T05:03:38.975Z,6.4
2019-04-22T05:05:31.231Z,6.4
2019-04-22T05:06:21.175Z,6.4
2019-04-22T05:07:35.824Z,6.4
2019-04-22T05:12:44.835Z,6.5
2019-04-22T05:13:38.967Z,6.5
2019-04-22T05:14:17.006Z,6.5
2019-04-22T05:15:29.211Z,6.5
2019-04-22T05:17:34.714Z,6.5
2019-04-22T05:18:37.067Z,6.6
2019-04-22T05:19:35.564Z,6.6
2019-04-22T05:20:40.354Z,6.6
2019-04-22T05:21:29.331Z,6.6
2019-04-22T05:22:33.447Z,6.6
2019-04-22T05:23:29.836Z,6.6
2019-04-22T05:24:27.951Z,6.6
2019-04-22T05:25:26.379Z,6.6
2019-04-22T05:26:32.359Z,6.6
2019-04-22T05:27:33.931Z,6.6
2019-04-22T05:28:29.796Z,6.6
2019-04-22T05:29:35.933Z,6.7
2019-04-22T05:30:31.836Z,6.7
2019-04-22T05:31:31.967Z,6.7
2019-04-22T05:32:30.530Z,6.8
2019-04-22T05:33:27.305Z,6.8
2019-04-22T05:34:27.851Z,6.8
2019-04-22T05:36:27.907Z,6.8
2019-04-22T05:37:26.877Z,6.8
2019-04-22T05:38:32.881Z,6.9
2019-04-22T05:39:28.117Z,6.9
2019-04-22T05:40:19.870Z,6.9
2019-04-22T05:41:28.555Z,7
2019-04-22T05:42:22.638Z,7
2019-04-22T05:43:27.072Z,7
2019-04-22T05:44:29.260Z,7
2019-04-22T05:45:24.609Z,7.1
2019-04-22T05:46:28.134Z,7.1
2019-04-22T05:47:25.249Z,7.1
2019-04-22T05:48:32.882Z,7.2
2019-04-22T05:49:28.542Z,7.2
2019-04-22T05:50:22.705Z,7.2
2019-04-22T05:51:30.932Z,7.2
2019-04-22T05:52:24.668Z,7.2
2019-04-22T05:53:25.240Z,7.3
2019-04-22T05:54:27.164Z,7.3
2019-04-22T05:55:41.361Z,7.3
2019-04-22T05:56:26.573Z,7.3
2019-04-22T05:57:30.883Z,7.3
2019-04-22T05:58:29.146Z,7.4
2019-04-22T05:59:30.606Z,7.4
2019-04-22T06:00:40.237Z,7.4
2019-04-22T06:01:37.786Z,7.5
2019-04-22T06:02:39.120Z,7.5
2019-04-22T06:03:28.203Z,7.5
2019-04-22T06:04:29.175Z,7.6
2019-04-22T06:05:30.139Z,7.6
2019-04-22T06:06:28.593Z,7.6
2019-04-22T06:07:26.055Z,7.7
2019-04-22T06:08:28.948Z,7.7
2019-04-22T06:09:28.251Z,7.8
2019-04-22T06:10:32.509Z,7.8
2019-04-22T06:11:54.190Z,7.9
2019-04-22T06:12:25.848Z,7.9
2019-04-22T06:13:23.158Z,7.9
2019-04-22T06:14:24.494Z,8
2019-04-22T06:15:28.640Z,8
2019-04-22T06:16:30.491Z,8.1
2019-04-22T06:17:29.890Z,8.1
2019-04-22T06:18:33.107Z,8.2
2019-04-22T06:19:24.298Z,8.3
2019-04-22T06:20:32.021Z,8.3
2019-04-22T06:21:32.532Z,8.4
2019-04-22T06:22:36.898Z,8.4
2019-04-22T06:23:34.210Z,8.5
2019-04-22T06:24:27.106Z,8.6
2019-04-22T06:25:36.508Z,8.6
2019-04-22T06:26:37.371Z,8.7
2019-04-22T06:27:32.594Z,8.7
2019-04-22T06:28:34.645Z,8.8
2019-04-22T06:29:29.675Z,8.9
2019-04-22T06:30:28.214Z,8.9
2019-04-22T06:31:32.009Z,9
2019-04-22T06:34:35.546Z,9.3
2019-04-22T06:35:48.482Z,9.4
2019-04-22T06:36:35.745Z,9.6
2019-04-22T06:37:33.501Z,9.7
2019-04-22T06:40:31.350Z,10.2
2019-04-22T06:41:20.980Z,10.4
2019-04-22T06:42:34.639Z,10.6
2019-04-22T06:43:34.775Z,10.9
2019-04-22T06:44:29.414Z,11.1
2019-04-22T06:45:28.455Z,11.2
2019-04-22T06:46:33.432Z,11.4
2019-04-22T06:47:43.684Z,11.6
2019-04-22T06:48:29.363Z,11.8
2019-04-22T06:49:29.885Z,12
2019-04-22T06:50:35.638Z,12.2
2019-04-22T06:51:32.078Z,12.4
2019-04-22T06:52:27.795Z,12.6
2019-04-22T06:55:35.292Z,13.1
2019-04-22T06:56:26.995Z,13.4
2019-04-22T06:57:30.097Z,13.5
2019-04-22T06:58:28.103Z,13.7
2019-04-22T06:59:31.002Z,13.8
2019-04-22T07:00:30.350Z,14
2019-04-22T07:05:32.411Z,14.7
2019-04-22T07:07:30.973Z,14.9
2019-04-22T07:09:34.814Z,15.2
2019-04-22T07:10:34.750Z,15.3
2019-04-22T07:11:29.435Z,15.4
2019-04-22T07:12:28.637Z,15.5
2019-04-22T07:14:28.068Z,15.7
2019-04-22T07:17:35.333Z,16
2019-04-22T07:19:33.146Z,16.2
2019-04-22T07:21:30.223Z,16.4
2019-04-22T07:22:21.358Z,16.5
2019-04-22T07:23:32.907Z,16.6
2019-04-22T07:24:40.207Z,16.7
2019-04-22T07:25:28.925Z,16.8
2019-04-22T07:26:28.878Z,16.9
2019-04-22T07:27:27.041Z,17
2019-04-22T07:28:22.595Z,17.1
2019-04-22T07:29:32.125Z,17.2
2019-04-22T07:30:31.055Z,17.3
2019-04-22T07:31:26.450Z,17.4
2019-04-22T07:32:53.009Z,17.5
2019-04-22T07:35:35.712Z,17.8
2019-04-22T07:36:45.377Z,18
2019-04-22T07:37:36.638Z,18.1
2019-04-22T07:38:35.479Z,18.2
2019-04-22T07:39:29.562Z,18.4
2019-04-22T07:40:33.905Z,18.6
2019-04-22T07:41:31.571Z,18.8
2019-04-22T07:42:30.896Z,18.9
2019-04-22T07:43:51.302Z,19
2019-04-22T07:44:30.706Z,19.1
2019-04-22T07:45:29.092Z,19.1
2019-04-22T07:46:33.369Z,19.1
2019-04-22T07:47:37.278Z,19.2
2019-04-22T07:48:37.407Z,19.3
2019-04-22T07:49:42.560Z,19.4
2019-04-22T07:50:42.597Z,19.4
2019-04-22T07:51:32.514Z,19.5
2019-04-22T07:52:33.261Z,19.5
2019-04-22T07:53:27.602Z,19.6
2019-04-22T07:54:31.411Z,19.7
2019-04-22T07:55:32.024Z,19.8
2019-04-22T07:56:36.177Z,19.9
2019-04-22T07:57:32.201Z,19.9
2019-04-22T07:58:28.529Z,19.9
2019-04-22T07:59:33.712Z,20
2019-04-22T08:00:33.933Z,20.1
2019-04-22T08:01:30.371Z,20.2
2019-04-22T08:02:37.239Z,20.3
2019-04-22T08:03:37.099Z,20.3
2019-04-22T08:04:48.716Z,20.4
2019-04-22T08:05:32.649Z,20.5
2019-04-22T08:06:27.900Z,20.6
2019-04-22T08:07:29.631Z,20.6
2019-04-22T08:08:28.608Z,20.7
2019-04-22T08:09:35.433Z,20.8
2019-04-22T08:10:36.637Z,20.9
2019-04-22T08:11:43.325Z,20.9
2019-04-22T08:12:33.056Z,21
2019-04-22T08:14:34.267Z,21
2019-04-22T08:15:32.205Z,21.1
2019-04-22T08:16:28.253Z,21.1
2019-04-22T08:17:51.733Z,21.2
2019-04-22T08:18:33.897Z,21.1
2019-04-22T08:19:34.892Z,21.1
2019-04-22T08:20:33.211Z,21.1
2019-04-22T08:21:21.804Z,21.1
2019-04-22T08:22:33.750Z,21.2
2019-04-22T08:23:35.154Z,21.3
2019-04-22T08:25:24.387Z,21.4
2019-04-22T08:26:31.613Z,21.5
2019-04-22T08:27:34.958Z,21.5
2019-04-22T08:28:37.709Z,21.5
2019-04-22T08:29:44.906Z,21.6
2019-04-22T08:30:39.432Z,21.6
2019-04-22T08:31:35.090Z,21.6
2019-04-22T08:32:34.322Z,21.6
2019-04-22T08:33:39.578Z,21.7
2019-04-22T08:34:29.036Z,21.7
2019-04-22T08:35:39.224Z,21.7
2019-04-22T08:37:50.613Z,21.7
2019-04-22T08:38:35.274Z,21.7
2019-04-22T08:39:30.801Z,21.7
2019-04-22T08:40:35.970Z,21.7
2019-04-22T08:42:42.731Z,21.5
2019-04-22T08:43:45.664Z,21.5
2019-04-22T08:44:50.714Z,21.5
2019-04-22T08:45:31.636Z,21.5
2019-04-22T08:46:32.885Z,21.6
2019-04-22T08:47:35.787Z,21.6
2019-04-22T08:48:35.971Z,21.7
2019-04-22T08:49:40.687Z,21.7
2019-04-22T08:50:33.180Z,21.8
2019-04-22T08:51:29.138Z,21.9
2019-04-22T08:52:33.443Z,21.9
2019-04-22T08:53:39.648Z,21.9
2019-04-22T08:54:35.635Z,22
2019-04-22T08:55:38.050Z,22
2019-04-22T08:57:46.704Z,22.2
2019-04-22T08:58:31.006Z,22.3
2019-04-22T08:59:27.773Z,22.3
2019-04-22T09:00:43.444Z,22.4
2019-04-22T09:01:32.546Z,22.5
2019-04-22T09:02:38.414Z,22.6
2019-04-22T09:03:30.191Z,22.7
2019-04-22T09:04:28.976Z,22.8
2019-04-22T09:05:36.648Z,22.9
2019-04-22T09:06:49.002Z,23
2019-04-22T09:07:36.058Z,23.1
2019-04-22T09:08:33.624Z,23.1
2019-04-22T09:09:37.703Z,23
2019-04-22T09:10:37.263Z,23
2019-04-22T09:13:34.985Z,22.6
2019-04-22T09:14:37.373Z,22.6
2019-04-22T09:15:33.903Z,22.7
2019-04-22T09:16:37.130Z,22.7
2019-04-22T09:18:34.291Z,22.7
2019-04-22T09:19:33.613Z,22.8
2019-04-22T09:20:40.118Z,22.8
2019-04-22T09:21:37.628Z,22.7
2019-04-22T09:22:32.106Z,22.7
2019-04-22T09:23:36.679Z,22.5
2019-04-22T09:24:35.470Z,22.4
2019-04-22T09:25:34.074Z,22.2
2019-04-22T09:26:35.869Z,22.2
2019-04-22T09:27:37.898Z,22.1
2019-04-22T09:28:37.503Z,22.1
2019-04-22T09:29:33.643Z,22
2019-04-22T09:30:39.661Z,22.1
2019-04-22T09:31:35.178Z,22.2
2019-04-22T09:32:37.623Z,22.3
2019-04-22T09:33:31.188Z,22.4
2019-04-22T09:36:40.513Z,22.7
2019-04-22T09:37:38.872Z,22.8
2019-04-22T09:38:37.429Z,22.8
2019-04-22T09:39:49.067Z,22.8
2019-04-22T09:40:34.065Z,22.8
2019-04-22T09:41:38.809Z,22.6
2019-04-22T09:42:38.726Z,22.5
2019-04-22T09:43:39.846Z,22.4
2019-04-22T09:44:35.775Z,22.4
2019-04-22T09:45:33.943Z,22.5
2019-04-22T09:46:51.456Z,22.5
2019-04-22T09:47:39.867Z,22.6
2019-04-22T09:48:36.917Z,22.7
2019-04-22T09:49:44.111Z,22.9
2019-04-22T09:50:28.979Z,23
2019-04-22T09:52:35.464Z,23
2019-04-22T09:53:35.914Z,22.9
2019-04-22T09:55:33.984Z,22.7
2019-04-22T09:56:37.163Z,22.7
2019-04-22T09:57:31.009Z,22.8
2019-04-22T09:58:39.267Z,22.9
2019-04-22T09:59:34.518Z,23
2019-04-22T10:00:37.239Z,23
2019-04-22T10:01:34.058Z,23
2019-04-22T10:02:40.442Z,23.1
2019-04-22T10:03:36.129Z,23.1
2019-04-22T10:04:39.302Z,23.1
2019-04-22T10:06:33.196Z,23.2
2019-04-22T10:07:31.621Z,23.3
2019-04-22T10:08:40.481Z,23.4
2019-04-22T10:09:59.057Z,23.5
2019-04-22T10:10:26.638Z,23.6
2019-04-22T10:12:36.120Z,23.5
2019-04-22T10:13:40.416Z,23.5
2019-04-22T10:14:30.614Z,23.6
2019-04-22T10:15:38.902Z,23.6
2019-04-22T10:16:36.909Z,23.6
2019-04-22T10:17:36.342Z,23.6
2019-04-22T10:19:35.698Z,23.4
2019-04-22T10:20:37.668Z,23.2
2019-04-22T10:21:49.800Z,23
2019-04-22T10:23:37.400Z,22.8
2019-04-22T10:24:31.765Z,22.7
2019-04-22T10:25:34.592Z,22.8
2019-04-22T10:26:38.724Z,22.8
2019-04-22T10:27:32.230Z,22.9
2019-04-22T10:28:38.346Z,23
2019-04-22T10:29:34.772Z,23.1
2019-04-22T10:30:42.802Z,23.2
2019-04-22T10:31:30.741Z,23.3
2019-04-22T10:32:35.167Z,23.4
2019-04-22T10:33:30.522Z,23.5
2019-04-22T10:34:24.357Z,23.7
2019-04-22T10:35:16.872Z,23.8
2019-04-22T10:36:13.116Z,23.9
2019-04-22T10:37:16.580Z,24
2019-04-22T10:38:12.342Z,24.1
2019-04-22T10:39:12.633Z,24.1
2019-04-22T10:40:13.551Z,24.2
2019-04-22T10:41:14.509Z,24.2
2019-04-22T10:42:13.280Z,24.2
2019-04-22T10:43:12.400Z,24.2
2019-04-22T10:44:12.996Z,24.2
2019-04-22T10:45:12.493Z,24.2
2019-04-22T10:46:13.806Z,24.2
2019-04-22T10:47:13.852Z,24.3
2019-04-22T10:48:12.529Z,24.3
2019-04-22T10:49:15.887Z,24.2
2019-04-22T10:50:12.618Z,24.1
2019-04-22T10:51:12.781Z,24.1
2019-04-22T10:52:12.973Z,24.1
2019-04-22T10:53:13.294Z,24
2019-04-22T10:54:13.480Z,24.1
2019-04-22T10:55:15.302Z,24.1
2019-04-22T10:56:12.871Z,24.2
2019-04-22T10:57:13.949Z,24.3
2019-04-22T10:58:13.026Z,24.3
2019-04-22T10:59:14.174Z,24.2
2019-04-22T11:00:13.590Z,24.1
2019-04-22T11:01:13.585Z,24
2019-04-22T11:02:13.698Z,23.9
2019-04-22T11:03:16.165Z,23.8
2019-04-22T11:04:15.670Z,23.8
2019-04-22T11:05:14.425Z,23.8
2019-04-22T11:06:13.283Z,23.9
2019-04-22T11:07:14.883Z,23.9
2019-04-22T11:08:20.120Z,23.9
2019-04-22T11:09:14.208Z,23.9
2019-04-22T11:10:27.200Z,24
2019-04-22T11:11:25.584Z,24.1
2019-04-22T11:12:17.430Z,24.2
2019-04-22T11:13:13.750Z,24.3
2019-04-22T11:14:14.647Z,24.3
2019-04-22T11:15:13.889Z,24.3
2019-04-22T11:16:13.857Z,24.3
2019-04-22T11:17:13.683Z,24.2
2019-04-22T11:18:13.685Z,24.1
2019-04-22T11:19:17.171Z,24
2019-04-22T11:20:13.769Z,23.9
2019-04-22T11:21:13.804Z,23.7
2019-04-22T11:22:20.400Z,23.7
2019-04-22T11:23:14.370Z,23.7
2019-04-22T11:24:14.829Z,23.6
2019-04-22T11:25:13.870Z,23.6
2019-04-22T11:26:13.793Z,23.5
2019-04-22T11:27:14.845Z,23.4
2019-04-22T11:29:14.080Z,23.1
2019-04-22T11:30:17.157Z,23.1
2019-04-22T11:31:14.668Z,23
2019-04-22T11:32:14.831Z,23.1
2019-04-22T11:33:14.381Z,23.1
2019-04-22T11:34:15.322Z,23.2
2019-04-22T11:35:14.129Z,23.3
2019-04-22T11:36:15.594Z,23.4
2019-04-22T11:37:14.639Z,23.4
2019-04-22T11:38:14.983Z,23.4
2019-04-22T11:39:16.798Z,23.2
2019-04-22T11:40:22.195Z,23.2
2019-04-22T11:41:14.748Z,23.2
2019-04-22T11:42:16.244Z,23.1
2019-04-22T11:43:16.385Z,23
2019-04-22T11:44:15.043Z,22.8
2019-04-22T11:45:15.254Z,22.8
2019-04-22T11:46:15.602Z,22.7
2019-04-22T11:47:15.082Z,22.6
2019-04-22T11:48:15.422Z,22.5
2019-04-22T11:49:14.421Z,22.3
2019-04-22T11:50:15.580Z,22.1
2019-04-22T11:51:15.817Z,22
2019-04-22T11:52:16.470Z,22
2019-04-22T11:53:14.475Z,22
2019-04-22T11:54:14.748Z,22
2019-04-22T11:55:14.920Z,21.9
2019-04-22T11:56:14.540Z,21.9
2019-04-22T11:57:15.030Z,21.9
2019-04-22T11:58:14.965Z,21.9
2019-04-22T11:59:15.024Z,21.9
2019-04-22T12:00:14.743Z,22
2019-04-22T12:01:14.918Z,22
2019-04-22T12:02:16.172Z,22
2019-04-22T12:03:14.828Z,22.2
2019-04-22T12:04:15.839Z,22.3
2019-04-22T12:05:15.887Z,22.4
2019-04-22T12:06:15.784Z,22.5
2019-04-22T12:07:15.025Z,22.5
2019-04-22T12:08:15.437Z,22.5
2019-04-22T12:09:17.618Z,22.5
2019-04-22T12:10:25.254Z,22.5
2019-04-22T12:11:14.696Z,22.6
2019-04-22T12:12:15.911Z,22.7
2019-04-22T12:13:15.753Z,22.8
2019-04-22T12:14:15.855Z,22.9
2019-04-22T12:15:15.022Z,23
2019-04-22T12:16:14.731Z,22.9
2019-04-22T12:17:15.956Z,23
2019-04-22T12:18:15.273Z,23
2019-04-22T12:19:15.622Z,23
2019-04-22T12:20:16.414Z,23.1
2019-04-22T12:21:15.250Z,23.2
2019-04-22T12:22:15.323Z,23.2
2019-04-22T12:23:14.876Z,23.2
2019-04-22T12:24:15.218Z,23.3
2019-04-22T12:25:22.243Z,23.3
2019-04-22T12:26:18.482Z,23.4
2019-04-22T12:27:17.410Z,24.7
2019-04-22T12:28:15.194Z,23.3
2019-04-22T12:29:15.453Z,23.2
2019-04-22T12:30:16.691Z,23
2019-04-22T12:31:15.498Z,22.9
2019-04-22T12:32:15.722Z,22.8
2019-04-22T12:33:15.125Z,22.8
2019-04-22T12:34:15.549Z,22.8
2019-04-22T12:35:17.729Z,22.7
2019-04-22T12:36:15.287Z,22.7
2019-04-22T12:37:24.689Z,22.6
2019-04-22T12:38:16.928Z,22.5
2019-04-22T12:39:15.694Z,22.4
2019-04-22T12:40:26.777Z,22.3
2019-04-22T12:41:16.014Z,22.2
2019-04-22T12:42:15.633Z,22.2
2019-04-22T12:43:18.494Z,22.2
2019-04-22T12:44:15.736Z,22.2
2019-04-22T12:45:16.229Z,22.2
2019-04-22T12:46:16.318Z,22.3
2019-04-22T12:47:15.843Z,22.3
2019-04-22T12:48:17.066Z,22.3
2019-04-22T12:49:16.262Z,22.3
2019-04-22T12:50:22.345Z,22.2
2019-04-22T12:51:16.033Z,22.1
2019-04-22T12:52:23.883Z,22
2019-04-22T12:53:18.609Z,21.9
2019-04-22T12:54:17.087Z,21.9
2019-04-22T12:55:17.412Z,21.9
2019-04-22T12:56:17.390Z,22
2019-04-22T12:57:16.784Z,22
2019-04-22T12:58:17.944Z,22.1
2019-04-22T12:59:17.256Z,22.2
2019-04-22T13:00:17.630Z,22.1
2019-04-22T13:01:16.964Z,22.1
2019-04-22T13:02:16.527Z,22.2
2019-04-22T13:03:17.823Z,22.2
2019-04-22T13:04:19.182Z,22.2
2019-04-22T13:05:16.630Z,22.3
2019-04-22T13:06:17.505Z,22.3
2019-04-22T13:07:17.670Z,22.4
2019-04-22T13:08:18.017Z,22.4
2019-04-22T13:09:18.035Z,22.4
2019-04-22T13:10:17.753Z,22.3
2019-04-22T13:11:20.166Z,22.3
2019-04-22T13:12:17.207Z,22.4
2019-04-22T13:13:16.993Z,22.4
2019-04-22T13:14:17.055Z,22.5
2019-04-22T13:15:18.113Z,22.5
2019-04-22T13:16:17.510Z,22.6
2019-04-22T13:17:17.205Z,22.5
2019-04-22T13:18:27.581Z,22.4
2019-04-22T13:19:19.307Z,22.3
2019-04-22T13:20:19.807Z,22.3
2019-04-22T13:21:18.501Z,22.3
2019-04-22T13:22:18.732Z,22.3
2019-04-22T13:23:17.951Z,22.3
2019-04-22T13:24:19.802Z,22.4
2019-04-22T13:25:17.683Z,22.4
2019-04-22T13:26:18.864Z,22.3
2019-04-22T13:27:22.024Z,22.3
2019-04-22T13:28:19.017Z,22.3
2019-04-22T13:29:19.109Z,22.2
2019-04-22T13:30:18.564Z,22.2
2019-04-22T13:31:20.446Z,22.2
2019-04-22T13:32:18.607Z,22
2019-04-22T13:33:19.016Z,21.9
2019-04-22T13:34:25.591Z,21.9
2019-04-22T13:35:19.927Z,21.9
2019-04-22T13:36:20.447Z,21.9
2019-04-22T13:37:19.105Z,21.9
2019-04-22T13:38:18.971Z,21.8
2019-04-22T13:39:18.760Z,21.8
2019-04-22T13:40:19.027Z,21.7
2019-04-22T13:41:28.809Z,21.6
2019-04-22T13:42:20.270Z,21.6
2019-04-22T13:43:18.757Z,21.5
2019-04-22T13:44:18.927Z,21.5
2019-04-22T13:45:17.954Z,21.4
2019-04-22T13:46:17.892Z,21.4
2019-04-22T13:47:34.506Z,21.3
2019-04-22T13:48:38.023Z,21.3
2019-04-22T13:49:49.209Z,21.3
2019-04-22T13:50:49.218Z,21.4
2019-04-22T13:51:51.901Z,21.4
2019-04-22T13:52:46.142Z,21.4
2019-04-22T13:54:11.939Z,21.3
2019-04-22T13:54:48.010Z,21.2
2019-04-22T13:55:44.803Z,21.1
2019-04-22T13:56:36.862Z,21
2019-04-22T13:57:32.385Z,20.9
2019-04-22T13:58:31.052Z,20.8
2019-04-22T13:59:26.556Z,20.8
2019-04-22T14:00:18.394Z,20.8
2019-04-22T14:01:18.710Z,20.8
2019-04-22T14:02:18.846Z,20.7
2019-04-22T14:03:18.399Z,20.7
2019-04-22T14:04:18.519Z,20.6
2019-04-22T14:05:19.194Z,20.5
2019-04-22T14:06:18.601Z,20.4
2019-04-22T14:07:18.906Z,20.4
2019-04-22T14:08:19.814Z,20.3
2019-04-22T14:09:18.529Z,20.4
2019-04-22T14:10:18.461Z,20.4
2019-04-22T14:11:27.553Z,20.4
2019-04-22T14:12:19.746Z,20.4
2019-04-22T14:13:19.605Z,20.4
2019-04-22T14:14:19.895Z,20.4
2019-04-22T14:15:18.169Z,20.4
2019-04-22T14:16:19.512Z,20.3
2019-04-22T14:17:18.759Z,20.3
2019-04-22T14:18:19.055Z,20.2
2019-04-22T14:19:18.527Z,20.2
2019-04-22T14:20:18.759Z,20.2
2019-04-22T14:21:18.833Z,20.1
2019-04-22T14:22:19.916Z,20.2
2019-04-22T14:23:18.566Z,20.2
2019-04-22T14:24:19.684Z,20.1
2019-04-22T14:25:20.709Z,20.2
2019-04-22T14:26:19.650Z,20.1
2019-04-22T14:27:30.278Z,20.1
2019-04-22T14:28:21.104Z,20
2019-04-22T14:29:19.678Z,19.9
2019-04-22T14:30:18.908Z,19.9
2019-04-22T14:31:20.230Z,19.9
2019-04-22T14:32:23.593Z,19.9
2019-04-22T14:33:20.186Z,19.9
2019-04-22T14:34:20.402Z,19.9
2019-04-22T14:35:19.008Z,19.9
2019-04-22T14:36:19.225Z,19.9
2019-04-22T14:37:20.222Z,19.8
2019-04-22T14:38:19.067Z,19.8
2019-04-22T14:39:19.835Z,19.8
2019-04-22T14:40:20.648Z,19.7
2019-04-22T14:41:35.586Z,19.7
2019-04-22T14:42:39.239Z,19.7
2019-04-22T14:43:47.580Z,19.7
2019-04-22T14:45:47.213Z,19.6
2019-04-22T14:46:49.046Z,19.6
2019-04-22T14:48:45.622Z,19.5
2019-04-22T14:49:41.660Z,19.5
2019-04-22T14:50:39.909Z,19.5
2019-04-22T14:51:30.100Z,19.5
2019-04-22T14:52:39.307Z,19.5
2019-04-22T14:54:34.475Z,19.5
2019-04-22T14:55:24.975Z,19.4
2019-04-22T14:56:20.226Z,19.4
2019-04-22T14:57:21.345Z,19.3
2019-04-22T14:58:19.958Z,19.2
2019-04-22T14:59:20.833Z,19.2
2019-04-22T15:00:20.148Z,19.1
2019-04-22T15:01:21.077Z,19.1
2019-04-22T15:02:21.400Z,19.1
2019-04-22T15:03:21.700Z,19.1
2019-04-22T15:04:21.236Z,19.1
2019-04-22T15:05:21.905Z,19.1
2019-04-22T15:06:22.271Z,19.1
2019-04-22T15:07:21.072Z,19.1
2019-04-22T15:08:21.369Z,19.1
2019-04-22T15:09:21.701Z,19
2019-04-22T15:10:22.075Z,19
2019-04-22T15:11:21.260Z,19
2019-04-22T15:12:29.833Z,19